sensor_id;sensor_type;location;lat;lon;timestamp;P1;durP1;ratioP1;P2;durP2;ratioP2
7377;SDS011;3730;50.856;12.776;2023-12-20T00:01:36;6.30;;;4.37;;
7377;SDS011;3730;50.856;12.776;2023-12-20T00:04:02;4.97;;;4.30;;
7377;SDS011;3730;50.856;12.776;2023-12-20T00:06:29;5.13;;;4.63;;
7377;SDS011;3730;50.856;12.776;2023-12-20T00:08:55;4.93;;;4.40;;
7377;SDS011;3730;50.856;12.776;2023-12-20T00:11:22;4.97;;;4.40;;
7377;SDS011;3730;50.856;12.776;2023-12-20T00:13:48;6.53;;;4.37;;
7377;SDS011;3730;50.856;12.776;2023-12-20T00:16:14;4.73;;;4.27;;
7377;SDS011;3730;50.856;12.776;2023-12-20T00:18:40;4.27;;;3.77;;
7377;SDS011;3730;50.856;12.776;2023-12-20T00:21:06;3.93;;;3.60;;
7377;SDS011;3730;50.856;12.776;2023-12-20T00:23:32;3.73;;;3.43;;
7377;SDS011;3730;50.856;12.776;2023-12-20T00:25:58;4.33;;;3.83;;
7377;SDS011;3730;50.856;12.776;2023-12-20T00:28:24;4.07;;;3.67;;
7377;SDS011;3730;50.856;12.776;2023-12-20T00:30:50;3.80;;;3.37;;
7377;SDS011;3730;50.856;12.776;2023-12-20T00:33:16;4.53;;;3.27;;
7377;SDS011;3730;50.856;12.776;2023-12-20T00:35:42;4.40;;;3.40;;
7377;SDS011;3730;50.856;12.776;2023-12-20T00:38:08;3.70;;;3.30;;
7377;SDS011;3730;50.856;12.776;2023-12-20T00:40:35;3.60;;;3.30;;
7377;SDS011;3730;50.856;12.776;2023-12-20T00:43:01;3.53;;;3.23;;
7377;SDS011;3730;50.856;12.776;2023-12-20T00:45:27;3.57;;;3.27;;
7377;SDS011;3730;50.856;12.776;2023-12-20T00:47:53;4.07;;;3.40;;
7377;SDS011;3730;50.856;12.776;2023-12-20T00:50:19;3.47;;;2.90;;
7377;SDS011;3730;50.856;12.776;2023-12-20T00:52:46;4.40;;;3.10;;
7377;SDS011;3730;50.856;12.776;2023-12-20T00:55:12;3.37;;;3.00;;
7377;SDS011;3730;50.856;12.776;2023-12-20T00:57:39;2.63;;;2.43;;
7377;SDS011;3730;50.856;12.776;2023-12-20T01:00:05;2.50;;;2.30;;
7377;SDS011;3730;50.856;12.776;2023-12-20T01:02:31;2.70;;;2.50;;
7377;SDS011;3730;50.856;12.776;2023-12-20T01:04:57;2.70;;;2.50;;
7377;SDS011;3730;50.856;12.776;2023-12-20T01:07:23;2.80;;;2.60;;
7377;SDS011;3730;50.856;12.776;2023-12-20T01:09:49;2.57;;;2.37;;
7377;SDS011;3730;50.856;12.776;2023-12-20T01:12:15;2.67;;;2.47;;
7377;SDS011;3730;50.856;12.776;2023-12-20T01:14:41;3.17;;;1.87;;
7377;SDS011;3730;50.856;12.776;2023-12-20T01:17:07;1.90;;;1.70;;
7377;SDS011;3730;50.856;12.776;2023-12-20T01:19:33;1.80;;;1.70;;
7377;SDS011;3730;50.856;12.776;2023-12-20T01:21:59;1.87;;;1.77;;
7377;SDS011;3730;50.856;12.776;2023-12-20T01:24:25;1.73;;;1.63;;
7377;SDS011;3730;50.856;12.776;2023-12-20T01:26:51;1.67;;;1.53;;
7377;SDS011;3730;50.856;12.776;2023-12-20T01:29:17;1.43;;;1.33;;
7377;SDS011;3730;50.856;12.776;2023-12-20T01:31:43;1.50;;;1.40;;
7377;SDS011;3730;50.856;12.776;2023-12-20T01:34:09;1.30;;;1.20;;
7377;SDS011;3730;50.856;12.776;2023-12-20T01:36:35;1.30;;;1.20;;
7377;SDS011;3730;50.856;12.776;2023-12-20T01:39:01;1.53;;;1.43;;
7377;SDS011;3730;50.856;12.776;2023-12-20T01:41:27;1.20;;;1.20;;
7377;SDS011;3730;50.856;12.776;2023-12-20T01:43:53;1.57;;;1.47;;
7377;SDS011;3730;50.856;12.776;2023-12-20T01:46:19;1.50;;;1.30;;
7377;SDS011;3730;50.856;12.776;2023-12-20T01:48:46;2.20;;;1.10;;
7377;SDS011;3730;50.856;12.776;2023-12-20T01:51:12;1.40;;;1.30;;
7377;SDS011;3730;50.856;12.776;2023-12-20T01:53:38;1.00;;;1.00;;
7377;SDS011;3730;50.856;12.776;2023-12-20T01:56:05;1.40;;;1.30;;
7377;SDS011;3730;50.856;12.776;2023-12-20T01:58:31;1.90;;;1.00;;
7377;SDS011;3730;50.856;12.776;2023-12-20T02:00:57;1.00;;;1.00;;
7377;SDS011;3730;50.856;12.776;2023-12-20T02:03:23;1.30;;;1.20;;
7377;SDS011;3730;50.856;12.776;2023-12-20T02:05:49;1.43;;;1.00;;
7377;SDS011;3730;50.856;12.776;2023-12-20T02:08:16;1.20;;;1.13;;
7377;SDS011;3730;50.856;12.776;2023-12-20T02:10:42;1.23;;;1.13;;
7377;SDS011;3730;50.856;12.776;2023-12-20T02:13:08;0.90;;;0.90;;
7377;SDS011;3730;50.856;12.776;2023-12-20T02:15:34;1.13;;;1.13;;
7377;SDS011;3730;50.856;12.776;2023-12-20T02:18:02;2.00;;;1.00;;
7377;SDS011;3730;50.856;12.776;2023-12-20T02:20:28;0.80;;;0.80;;
7377;SDS011;3730;50.856;12.776;2023-12-20T02:22:54;1.13;;;1.03;;
7377;SDS011;3730;50.856;12.776;2023-12-20T02:25:20;1.03;;;1.03;;
7377;SDS011;3730;50.856;12.776;2023-12-20T02:27:46;0.87;;;0.87;;
7377;SDS011;3730;50.856;12.776;2023-12-20T02:30:13;0.80;;;0.80;;
7377;SDS011;3730;50.856;12.776;2023-12-20T02:32:38;1.03;;;1.00;;
7377;SDS011;3730;50.856;12.776;2023-12-20T02:35:05;0.90;;;0.90;;
7377;SDS011;3730;50.856;12.776;2023-12-20T02:37:30;1.10;;;0.90;;
7377;SDS011;3730;50.856;12.776;2023-12-20T02:39:58;0.87;;;0.87;;
7377;SDS011;3730;50.856;12.776;2023-12-20T02:42:23;0.93;;;0.83;;
7377;SDS011;3730;50.856;12.776;2023-12-20T02:44:49;1.20;;;1.10;;
7377;SDS011;3730;50.856;12.776;2023-12-20T02:47:15;0.97;;;0.97;;
7377;SDS011;3730;50.856;12.776;2023-12-20T02:49:40;0.90;;;0.90;;
7377;SDS011;3730;50.856;12.776;2023-12-20T02:52:06;0.77;;;0.77;;
7377;SDS011;3730;50.856;12.776;2023-12-20T02:54:31;0.80;;;0.80;;
7377;SDS011;3730;50.856;12.776;2023-12-20T02:56:57;0.80;;;0.80;;
7377;SDS011;3730;50.856;12.776;2023-12-20T02:59:23;0.70;;;0.70;;
7377;SDS011;3730;50.856;12.776;2023-12-20T03:01:48;0.70;;;0.70;;
7377;SDS011;3730;50.856;12.776;2023-12-20T03:04:14;0.80;;;0.80;;
7377;SDS011;3730;50.856;12.776;2023-12-20T03:06:39;0.63;;;0.63;;
7377;SDS011;3730;50.856;12.776;2023-12-20T03:09:05;1.10;;;0.90;;
7377;SDS011;3730;50.856;12.776;2023-12-20T03:11:31;0.67;;;0.67;;
7377;SDS011;3730;50.856;12.776;2023-12-20T03:13:56;0.63;;;0.63;;
7377;SDS011;3730;50.856;12.776;2023-12-20T03:16:22;0.80;;;0.80;;
7377;SDS011;3730;50.856;12.776;2023-12-20T03:18:48;0.80;;;0.80;;
7377;SDS011;3730;50.856;12.776;2023-12-20T03:21:14;0.80;;;0.80;;
7377;SDS011;3730;50.856;12.776;2023-12-20T03:23:40;0.67;;;0.67;;
7377;SDS011;3730;50.856;12.776;2023-12-20T03:26:09;1.27;;;0.70;;
7377;SDS011;3730;50.856;12.776;2023-12-20T03:28:35;0.70;;;0.70;;
7377;SDS011;3730;50.856;12.776;2023-12-20T03:31:02;0.60;;;0.60;;
7377;SDS011;3730;50.856;12.776;2023-12-20T03:33:28;0.53;;;0.53;;
7377;SDS011;3730;50.856;12.776;2023-12-20T03:35:54;0.50;;;0.50;;
7377;SDS011;3730;50.856;12.776;2023-12-20T03:38:20;0.60;;;0.60;;
7377;SDS011;3730;50.856;12.776;2023-12-20T03:40:46;0.60;;;0.60;;
7377;SDS011;3730;50.856;12.776;2023-12-20T03:43:12;0.73;;;0.73;;
7377;SDS011;3730;50.856;12.776;2023-12-20T03:45:37;1.20;;;0.50;;
7377;SDS011;3730;50.856;12.776;2023-12-20T03:48:03;0.60;;;0.60;;
7377;SDS011;3730;50.856;12.776;2023-12-20T03:50:29;0.70;;;0.70;;
7377;SDS011;3730;50.856;12.776;2023-12-20T03:52:55;0.70;;;0.70;;
7377;SDS011;3730;50.856;12.776;2023-12-20T03:55:21;0.50;;;0.50;;
7377;SDS011;3730;50.856;12.776;2023-12-20T03:57:47;0.70;;;0.70;;
7377;SDS011;3730;50.856;12.776;2023-12-20T04:00:12;0.97;;;0.63;;
7377;SDS011;3730;50.856;12.776;2023-12-20T04:02:39;0.50;;;0.50;;
7377;SDS011;3730;50.856;12.776;2023-12-20T04:05:05;0.80;;;0.80;;
7377;SDS011;3730;50.856;12.776;2023-12-20T04:07:31;0.70;;;0.70;;
7377;SDS011;3730;50.856;12.776;2023-12-20T04:09:57;1.10;;;0.80;;
7377;SDS011;3730;50.856;12.776;2023-12-20T04:12:23;0.77;;;0.77;;
7377;SDS011;3730;50.856;12.776;2023-12-20T04:14:48;0.80;;;0.80;;
7377;SDS011;3730;50.856;12.776;2023-12-20T04:17:15;0.70;;;0.70;;
7377;SDS011;3730;50.856;12.776;2023-12-20T04:19:41;0.77;;;0.77;;
7377;SDS011;3730;50.856;12.776;2023-12-20T04:22:07;0.70;;;0.70;;
7377;SDS011;3730;50.856;12.776;2023-12-20T04:24:33;1.50;;;0.80;;
7377;SDS011;3730;50.856;12.776;2023-12-20T04:26:59;0.77;;;0.77;;
7377;SDS011;3730;50.856;12.776;2023-12-20T04:29:25;0.80;;;0.80;;
7377;SDS011;3730;50.856;12.776;2023-12-20T04:31:50;1.13;;;0.83;;
7377;SDS011;3730;50.856;12.776;2023-12-20T04:34:19;0.83;;;0.83;;
7377;SDS011;3730;50.856;12.776;2023-12-20T04:36:44;0.87;;;0.87;;
7377;SDS011;3730;50.856;12.776;2023-12-20T04:39:11;1.27;;;1.10;;
7377;SDS011;3730;50.856;12.776;2023-12-20T04:41:38;2.23;;;0.90;;
7377;SDS011;3730;50.856;12.776;2023-12-20T04:44:04;1.50;;;1.40;;
7377;SDS011;3730;50.856;12.776;2023-12-20T04:46:31;1.00;;;1.00;;
7377;SDS011;3730;50.856;12.776;2023-12-20T04:48:56;0.90;;;0.90;;
7377;SDS011;3730;50.856;12.776;2023-12-20T04:51:22;1.03;;;1.00;;
7377;SDS011;3730;50.856;12.776;2023-12-20T04:53:48;0.90;;;0.90;;
7377;SDS011;3730;50.856;12.776;2023-12-20T04:56:13;0.87;;;0.87;;
7377;SDS011;3730;50.856;12.776;2023-12-20T04:58:39;1.17;;;1.03;;
7377;SDS011;3730;50.856;12.776;2023-12-20T05:01:05;0.80;;;0.80;;
7377;SDS011;3730;50.856;12.776;2023-12-20T05:03:31;0.90;;;0.90;;
7377;SDS011;3730;50.856;12.776;2023-12-20T05:05:57;0.70;;;0.70;;
7377;SDS011;3730;50.856;12.776;2023-12-20T05:08:23;0.70;;;0.70;;
7377;SDS011;3730;50.856;12.776;2023-12-20T05:10:48;0.70;;;0.70;;
7377;SDS011;3730;50.856;12.776;2023-12-20T05:13:14;1.73;;;0.80;;
7377;SDS011;3730;50.856;12.776;2023-12-20T05:15:40;0.80;;;0.80;;
7377;SDS011;3730;50.856;12.776;2023-12-20T05:18:06;1.27;;;1.00;;
7377;SDS011;3730;50.856;12.776;2023-12-20T05:20:31;0.80;;;0.80;;
7377;SDS011;3730;50.856;12.776;2023-12-20T05:22:57;0.80;;;0.80;;
7377;SDS011;3730;50.856;12.776;2023-12-20T05:25:23;1.03;;;1.00;;
7377;SDS011;3730;50.856;12.776;2023-12-20T05:27:48;0.93;;;0.93;;
7377;SDS011;3730;50.856;12.776;2023-12-20T05:30:14;1.00;;;1.00;;
7377;SDS011;3730;50.856;12.776;2023-12-20T05:32:40;2.13;;;0.90;;
7377;SDS011;3730;50.856;12.776;2023-12-20T05:35:05;1.67;;;0.90;;
7377;SDS011;3730;50.856;12.776;2023-12-20T05:37:32;0.87;;;0.87;;
7377;SDS011;3730;50.856;12.776;2023-12-20T05:39:57;0.80;;;0.80;;
7377;SDS011;3730;50.856;12.776;2023-12-20T05:42:23;0.90;;;0.90;;
7377;SDS011;3730;50.856;12.776;2023-12-20T05:44:49;1.03;;;1.00;;
7377;SDS011;3730;50.856;12.776;2023-12-20T05:47:14;0.90;;;0.90;;
7377;SDS011;3730;50.856;12.776;2023-12-20T05:49:40;1.00;;;1.00;;
7377;SDS011;3730;50.856;12.776;2023-12-20T05:52:05;0.80;;;0.80;;
7377;SDS011;3730;50.856;12.776;2023-12-20T05:54:31;0.93;;;0.93;;
7377;SDS011;3730;50.856;12.776;2023-12-20T05:56:57;1.13;;;1.10;;
7377;SDS011;3730;50.856;12.776;2023-12-20T05:59:22;1.50;;;1.40;;
7377;SDS011;3730;50.856;12.776;2023-12-20T06:01:49;2.70;;;2.50;;
7377;SDS011;3730;50.856;12.776;2023-12-20T06:04:14;1.63;;;1.53;;
7377;SDS011;3730;50.856;12.776;2023-12-20T06:06:40;1.83;;;1.73;;
7377;SDS011;3730;50.856;12.776;2023-12-20T06:09:07;2.17;;;1.97;;
7377;SDS011;3730;50.856;12.776;2023-12-20T06:11:32;2.17;;;1.97;;
7377;SDS011;3730;50.856;12.776;2023-12-20T06:13:58;2.30;;;2.20;;
7377;SDS011;3730;50.856;12.776;2023-12-20T06:16:24;2.83;;;2.30;;
7377;SDS011;3730;50.856;12.776;2023-12-20T06:18:50;2.27;;;2.10;;
7377;SDS011;3730;50.856;12.776;2023-12-20T06:21:15;2.60;;;2.40;;
7377;SDS011;3730;50.856;12.776;2023-12-20T06:23:41;2.00;;;1.90;;
7377;SDS011;3730;50.856;12.776;2023-12-20T06:26:06;2.00;;;1.90;;
7377;SDS011;3730;50.856;12.776;2023-12-20T06:28:32;2.60;;;2.00;;
7377;SDS011;3730;50.856;12.776;2023-12-20T06:30:58;2.67;;;2.17;;
7377;SDS011;3730;50.856;12.776;2023-12-20T06:33:25;2.10;;;2.00;;
7377;SDS011;3730;50.856;12.776;2023-12-20T06:35:51;2.43;;;2.23;;
7377;SDS011;3730;50.856;12.776;2023-12-20T06:38:17;2.70;;;2.50;;
7377;SDS011;3730;50.856;12.776;2023-12-20T06:40:43;2.60;;;2.40;;
7377;SDS011;3730;50.856;12.776;2023-12-20T06:43:09;2.80;;;2.60;;
7377;SDS011;3730;50.856;12.776;2023-12-20T06:45:35;2.80;;;2.60;;
7377;SDS011;3730;50.856;12.776;2023-12-20T06:48:01;2.70;;;2.50;;
7377;SDS011;3730;50.856;12.776;2023-12-20T06:50:26;2.43;;;2.30;;
7377;SDS011;3730;50.856;12.776;2023-12-20T06:52:52;2.67;;;2.47;;
7377;SDS011;3730;50.856;12.776;2023-12-20T06:55:18;2.70;;;2.33;;
7377;SDS011;3730;50.856;12.776;2023-12-20T06:57:43;3.60;;;2.67;;
7377;SDS011;3730;50.856;12.776;2023-12-20T07:00:11;2.70;;;2.50;;
7377;SDS011;3730;50.856;12.776;2023-12-20T07:02:37;2.20;;;2.00;;
7377;SDS011;3730;50.856;12.776;2023-12-20T07:05:02;4.47;;;2.77;;
7377;SDS011;3730;50.856;12.776;2023-12-20T07:07:29;3.07;;;2.77;;
7377;SDS011;3730;50.856;12.776;2023-12-20T07:09:55;2.70;;;2.40;;
7377;SDS011;3730;50.856;12.776;2023-12-20T07:12:21;2.23;;;2.00;;
7377;SDS011;3730;50.856;12.776;2023-12-20T07:14:47;2.77;;;2.20;;
7377;SDS011;3730;50.856;12.776;2023-12-20T07:17:13;3.20;;;2.10;;
7377;SDS011;3730;50.856;12.776;2023-12-20T07:19:46;4.93;;;2.37;;
7377;SDS011;3730;50.856;12.776;2023-12-20T07:22:20;2.63;;;2.10;;
7377;SDS011;3730;50.856;12.776;2023-12-20T07:24:46;2.70;;;2.50;;
7377;SDS011;3730;50.856;12.776;2023-12-20T07:27:13;3.80;;;2.00;;
7377;SDS011;3730;50.856;12.776;2023-12-20T07:29:38;2.63;;;2.27;;
7377;SDS011;3730;50.856;12.776;2023-12-20T07:32:04;2.87;;;2.10;;
7377;SDS011;3730;50.856;12.776;2023-12-20T07:34:30;2.40;;;2.20;;
7377;SDS011;3730;50.856;12.776;2023-12-20T07:36:56;2.40;;;2.20;;
7377;SDS011;3730;50.856;12.776;2023-12-20T07:39:21;5.77;;;2.60;;
7377;SDS011;3730;50.856;12.776;2023-12-20T07:41:47;2.43;;;2.23;;
7377;SDS011;3730;50.856;12.776;2023-12-20T07:44:13;3.90;;;2.77;;
7377;SDS011;3730;50.856;12.776;2023-12-20T07:46:41;2.83;;;2.50;;
7377;SDS011;3730;50.856;12.776;2023-12-20T07:49:07;2.63;;;2.30;;
7377;SDS011;3730;50.856;12.776;2023-12-20T07:51:33;2.50;;;2.30;;
7377;SDS011;3730;50.856;12.776;2023-12-20T07:53:59;6.10;;;2.07;;
7377;SDS011;3730;50.856;12.776;2023-12-20T07:56:24;2.33;;;2.13;;
7377;SDS011;3730;50.856;12.776;2023-12-20T07:58:50;4.53;;;2.37;;
7377;SDS011;3730;50.856;12.776;2023-12-20T08:01:16;3.90;;;2.40;;
7377;SDS011;3730;50.856;12.776;2023-12-20T08:03:43;3.97;;;2.83;;
7377;SDS011;3730;50.856;12.776;2023-12-20T08:06:09;3.73;;;2.60;;
7377;SDS011;3730;50.856;12.776;2023-12-20T08:08:34;4.20;;;2.60;;
7377;SDS011;3730;50.856;12.776;2023-12-20T08:11:00;2.93;;;1.93;;
7377;SDS011;3730;50.856;12.776;2023-12-20T08:13:26;3.00;;;2.70;;
7377;SDS011;3730;50.856;12.776;2023-12-20T08:15:52;3.43;;;2.50;;
7377;SDS011;3730;50.856;12.776;2023-12-20T08:18:18;3.00;;;2.67;;
7377;SDS011;3730;50.856;12.776;2023-12-20T08:20:44;2.50;;;2.30;;
7377;SDS011;3730;50.856;12.776;2023-12-20T08:23:10;3.40;;;2.70;;
7377;SDS011;3730;50.856;12.776;2023-12-20T08:25:35;4.17;;;2.83;;
7377;SDS011;3730;50.856;12.776;2023-12-20T08:28:04;2.93;;;2.63;;
7377;SDS011;3730;50.856;12.776;2023-12-20T08:30:30;4.00;;;3.20;;
7377;SDS011;3730;50.856;12.776;2023-12-20T08:32:59;2.90;;;2.67;;
7377;SDS011;3730;50.856;12.776;2023-12-20T08:35:25;3.33;;;2.90;;
7377;SDS011;3730;50.856;12.776;2023-12-20T08:37:51;3.93;;;3.10;;
7377;SDS011;3730;50.856;12.776;2023-12-20T08:40:17;3.50;;;3.20;;
7377;SDS011;3730;50.856;12.776;2023-12-20T08:42:42;4.87;;;3.40;;
7377;SDS011;3730;50.856;12.776;2023-12-20T08:45:08;3.93;;;2.97;;
7377;SDS011;3730;50.856;12.776;2023-12-20T08:47:34;3.50;;;2.60;;
7377;SDS011;3730;50.856;12.776;2023-12-20T08:50:00;3.87;;;2.63;;
7377;SDS011;3730;50.856;12.776;2023-12-20T08:52:26;2.93;;;2.57;;
7377;SDS011;3730;50.856;12.776;2023-12-20T08:54:54;2.53;;;2.23;;
7377;SDS011;3730;50.856;12.776;2023-12-20T08:57:20;2.77;;;2.50;;
7377;SDS011;3730;50.856;12.776;2023-12-20T08:59:48;2.57;;;2.10;;
7377;SDS011;3730;50.856;12.776;2023-12-20T09:02:13;2.73;;;1.90;;
7377;SDS011;3730;50.856;12.776;2023-12-20T09:04:39;4.97;;;1.80;;
7377;SDS011;3730;50.856;12.776;2023-12-20T09:07:05;1.80;;;1.70;;
7377;SDS011;3730;50.856;12.776;2023-12-20T09:09:30;3.20;;;1.47;;
7377;SDS011;3730;50.856;12.776;2023-12-20T09:11:58;1.97;;;1.53;;
7377;SDS011;3730;50.856;12.776;2023-12-20T09:14:24;1.60;;;1.50;;
7377;SDS011;3730;50.856;12.776;2023-12-20T09:16:50;3.93;;;1.87;;
7377;SDS011;3730;50.856;12.776;2023-12-20T09:19:16;2.33;;;1.90;;
7377;SDS011;3730;50.856;12.776;2023-12-20T09:21:42;2.20;;;2.00;;
7377;SDS011;3730;50.856;12.776;2023-12-20T09:24:08;3.30;;;2.10;;
7377;SDS011;3730;50.856;12.776;2023-12-20T09:26:34;4.40;;;2.47;;
7377;SDS011;3730;50.856;12.776;2023-12-20T09:29:00;4.90;;;2.63;;
7377;SDS011;3730;50.856;12.776;2023-12-20T09:31:26;2.93;;;2.30;;
7377;SDS011;3730;50.856;12.776;2023-12-20T09:33:52;3.60;;;2.70;;
7377;SDS011;3730;50.856;12.776;2023-12-20T09:36:18;3.83;;;2.67;;
7377;SDS011;3730;50.856;12.776;2023-12-20T09:38:44;2.90;;;2.70;;
7377;SDS011;3730;50.856;12.776;2023-12-20T09:41:10;6.13;;;2.73;;
7377;SDS011;3730;50.856;12.776;2023-12-20T09:43:37;4.20;;;2.60;;
7377;SDS011;3730;50.856;12.776;2023-12-20T09:46:05;3.30;;;3.00;;
7377;SDS011;3730;50.856;12.776;2023-12-20T09:48:32;4.07;;;2.90;;
7377;SDS011;3730;50.856;12.776;2023-12-20T09:50:58;4.27;;;3.00;;
7377;SDS011;3730;50.856;12.776;2023-12-20T09:53:24;3.87;;;2.90;;
7377;SDS011;3730;50.856;12.776;2023-12-20T09:55:55;4.10;;;2.70;;
7377;SDS011;3730;50.856;12.776;2023-12-20T09:58:22;4.27;;;2.50;;
7377;SDS011;3730;50.856;12.776;2023-12-20T10:00:49;4.90;;;2.70;;
7377;SDS011;3730;50.856;12.776;2023-12-20T10:03:15;7.07;;;2.90;;
7377;SDS011;3730;50.856;12.776;2023-12-20T10:05:41;4.00;;;2.50;;
7377;SDS011;3730;50.856;12.776;2023-12-20T10:08:08;4.13;;;2.50;;
7377;SDS011;3730;50.856;12.776;2023-12-20T10:10:34;7.17;;;2.97;;
7377;SDS011;3730;50.856;12.776;2023-12-20T10:13:08;6.43;;;3.67;;
7377;SDS011;3730;50.856;12.776;2023-12-20T10:15:35;4.73;;;3.20;;
7377;SDS011;3730;50.856;12.776;2023-12-20T10:18:02;6.10;;;3.30;;
7377;SDS011;3730;50.856;12.776;2023-12-20T10:20:28;3.87;;;3.17;;
7377;SDS011;3730;50.856;12.776;2023-12-20T10:22:55;4.03;;;2.97;;
7377;SDS011;3730;50.856;12.776;2023-12-20T10:25:21;3.57;;;3.20;;
7377;SDS011;3730;50.856;12.776;2023-12-20T10:27:47;3.50;;;3.00;;
7377;SDS011;3730;50.856;12.776;2023-12-20T10:30:14;4.80;;;2.77;;
7377;SDS011;3730;50.856;12.776;2023-12-20T10:32:40;3.03;;;2.70;;
7377;SDS011;3730;50.856;12.776;2023-12-20T10:35:07;3.97;;;2.63;;
7377;SDS011;3730;50.856;12.776;2023-12-20T10:37:36;9.73;;;3.50;;
7377;SDS011;3730;50.856;12.776;2023-12-20T10:40:03;5.07;;;2.57;;
7377;SDS011;3730;50.856;12.776;2023-12-20T10:42:30;4.00;;;2.90;;
7377;SDS011;3730;50.856;12.776;2023-12-20T10:44:59;3.90;;;2.80;;
7377;SDS011;3730;50.856;12.776;2023-12-20T10:47:25;5.23;;;3.17;;
7377;SDS011;3730;50.856;12.776;2023-12-20T10:49:54;4.80;;;2.60;;
7377;SDS011;3730;50.856;12.776;2023-12-20T10:52:23;4.13;;;2.60;;
7377;SDS011;3730;50.856;12.776;2023-12-20T10:54:50;5.57;;;2.60;;
7377;SDS011;3730;50.856;12.776;2023-12-20T10:57:15;3.83;;;2.70;;
7377;SDS011;3730;50.856;12.776;2023-12-20T10:59:43;4.00;;;3.03;;
7377;SDS011;3730;50.856;12.776;2023-12-20T11:02:12;3.23;;;2.60;;
7377;SDS011;3730;50.856;12.776;2023-12-20T11:04:45;3.97;;;2.50;;
7377;SDS011;3730;50.856;12.776;2023-12-20T11:07:21;3.80;;;2.60;;
7377;SDS011;3730;50.856;12.776;2023-12-20T11:10:19;3.43;;;2.50;;
7377;SDS011;3730;50.856;12.776;2023-12-20T11:12:52;4.37;;;2.50;;
7377;SDS011;3730;50.856;12.776;2023-12-20T11:15:22;5.27;;;2.60;;
7377;SDS011;3730;50.856;12.776;2023-12-20T11:17:55;3.30;;;2.33;;
7377;SDS011;3730;50.856;12.776;2023-12-20T11:20:34;3.30;;;2.17;;
7377;SDS011;3730;50.856;12.776;2023-12-20T11:23:04;3.57;;;2.70;;
7377;SDS011;3730;50.856;12.776;2023-12-20T11:28:11;3.67;;;2.50;;
7377;SDS011;3730;50.856;12.776;2023-12-20T11:30:41;4.87;;;2.57;;
7377;SDS011;3730;50.856;12.776;2023-12-20T11:33:17;3.03;;;2.23;;
7377;SDS011;3730;50.856;12.776;2023-12-20T11:35:50;5.30;;;2.50;;
7377;SDS011;3730;50.856;12.776;2023-12-20T11:38:16;4.00;;;2.40;;
7377;SDS011;3730;50.856;12.776;2023-12-20T11:40:42;10.07;;;3.23;;
7377;SDS011;3730;50.856;12.776;2023-12-20T11:43:08;3.07;;;2.10;;
7377;SDS011;3730;50.856;12.776;2023-12-20T11:45:34;4.80;;;2.33;;
7377;SDS011;3730;50.856;12.776;2023-12-20T11:48:03;7.10;;;2.80;;
7377;SDS011;3730;50.856;12.776;2023-12-20T11:50:29;8.83;;;2.83;;
7377;SDS011;3730;50.856;12.776;2023-12-20T11:52:56;5.03;;;2.70;;
7377;SDS011;3730;50.856;12.776;2023-12-20T11:55:22;4.00;;;2.30;;
7377;SDS011;3730;50.856;12.776;2023-12-20T11:57:49;6.27;;;2.50;;
7377;SDS011;3730;50.856;12.776;2023-12-20T12:00:15;4.90;;;2.30;;
7377;SDS011;3730;50.856;12.776;2023-12-20T12:02:41;6.53;;;2.07;;
7377;SDS011;3730;50.856;12.776;2023-12-20T12:05:07;2.60;;;1.80;;
7377;SDS011;3730;50.856;12.776;2023-12-20T12:07:33;4.93;;;1.60;;
7377;SDS011;3730;50.856;12.776;2023-12-20T12:10:00;7.10;;;1.80;;
7377;SDS011;3730;50.856;12.776;2023-12-20T12:12:25;3.33;;;2.00;;
7377;SDS011;3730;50.856;12.776;2023-12-20T12:14:52;5.63;;;1.63;;
7377;SDS011;3730;50.856;12.776;2023-12-20T12:17:18;7.57;;;2.23;;
7377;SDS011;3730;50.856;12.776;2023-12-20T12:19:44;4.90;;;2.20;;
7377;SDS011;3730;50.856;12.776;2023-12-20T12:22:11;6.63;;;2.20;;
7377;SDS011;3730;50.856;12.776;2023-12-20T12:27:08;5.13;;;1.83;;
7377;SDS011;3730;50.856;12.776;2023-12-20T12:29:34;8.07;;;2.00;;
7377;SDS011;3730;50.856;12.776;2023-12-20T12:32:01;4.33;;;1.80;;
7377;SDS011;3730;50.856;12.776;2023-12-20T12:34:27;3.40;;;1.63;;
7377;SDS011;3730;50.856;12.776;2023-12-20T12:36:55;3.83;;;1.70;;
7377;SDS011;3730;50.856;12.776;2023-12-20T12:39:21;1.97;;;1.47;;
7377;SDS011;3730;50.856;12.776;2023-12-20T12:41:52;2.07;;;1.40;;
7377;SDS011;3730;50.856;12.776;2023-12-20T12:44:18;3.60;;;1.70;;
7377;SDS011;3730;50.856;12.776;2023-12-20T12:46:45;5.20;;;1.70;;
7377;SDS011;3730;50.856;12.776;2023-12-20T12:49:11;3.73;;;1.40;;
7377;SDS011;3730;50.856;12.776;2023-12-20T12:51:37;3.07;;;1.50;;
7377;SDS011;3730;50.856;12.776;2023-12-20T12:54:03;1.93;;;1.30;;
7377;SDS011;3730;50.856;12.776;2023-12-20T12:56:29;2.73;;;1.57;;
7377;SDS011;3730;50.856;12.776;2023-12-20T12:58:55;3.27;;;1.63;;
7377;SDS011;3730;50.856;12.776;2023-12-20T13:01:21;5.50;;;1.80;;
7377;SDS011;3730;50.856;12.776;2023-12-20T13:03:47;2.33;;;2.03;;
7377;SDS011;3730;50.856;12.776;2023-12-20T13:06:13;3.63;;;1.30;;
7377;SDS011;3730;50.856;12.776;2023-12-20T13:08:39;2.60;;;1.50;;
7377;SDS011;3730;50.856;12.776;2023-12-20T13:11:05;3.13;;;1.43;;
7377;SDS011;3730;50.856;12.776;2023-12-20T13:13:31;3.40;;;1.57;;
7377;SDS011;3730;50.856;12.776;2023-12-20T13:15:57;4.20;;;1.90;;
7377;SDS011;3730;50.856;12.776;2023-12-20T13:18:23;3.10;;;1.40;;
7377;SDS011;3730;50.856;12.776;2023-12-20T13:20:49;6.47;;;2.07;;
7377;SDS011;3730;50.856;12.776;2023-12-20T13:23:15;3.93;;;1.50;;
7377;SDS011;3730;50.856;12.776;2023-12-20T13:25:43;2.67;;;1.50;;
7377;SDS011;3730;50.856;12.776;2023-12-20T13:28:10;4.30;;;1.70;;
7377;SDS011;3730;50.856;12.776;2023-12-20T13:30:37;2.77;;;1.60;;
7377;SDS011;3730;50.856;12.776;2023-12-20T13:33:03;3.87;;;1.60;;
7377;SDS011;3730;50.856;12.776;2023-12-20T13:35:30;3.33;;;1.50;;
7377;SDS011;3730;50.856;12.776;2023-12-20T13:37:56;3.47;;;1.60;;
7377;SDS011;3730;50.856;12.776;2023-12-20T13:40:22;1.63;;;1.23;;
7377;SDS011;3730;50.856;12.776;2023-12-20T13:42:48;2.07;;;1.20;;
7377;SDS011;3730;50.856;12.776;2023-12-20T13:45:15;1.07;;;1.03;;
7377;SDS011;3730;50.856;12.776;2023-12-20T13:47:41;2.50;;;1.10;;
7377;SDS011;3730;50.856;12.776;2023-12-20T13:50:07;1.63;;;1.30;;
7377;SDS011;3730;50.856;12.776;2023-12-20T13:52:33;4.10;;;1.43;;
7377;SDS011;3730;50.856;12.776;2023-12-20T13:54:59;2.17;;;1.50;;
7377;SDS011;3730;50.856;12.776;2023-12-20T13:57:25;2.37;;;1.40;;
7377;SDS011;3730;50.856;12.776;2023-12-20T13:59:51;5.00;;;1.70;;
7377;SDS011;3730;50.856;12.776;2023-12-20T14:02:17;2.07;;;1.37;;
7377;SDS011;3730;50.856;12.776;2023-12-20T14:04:43;3.50;;;1.70;;
7377;SDS011;3730;50.856;12.776;2023-12-20T14:07:09;2.10;;;1.43;;
7377;SDS011;3730;50.856;12.776;2023-12-20T14:09:35;2.23;;;1.40;;
7377;SDS011;3730;50.856;12.776;2023-12-20T14:12:03;6.27;;;1.60;;
7377;SDS011;3730;50.856;12.776;2023-12-20T14:14:29;2.90;;;1.33;;
7377;SDS011;3730;50.856;12.776;2023-12-20T14:16:55;4.07;;;1.63;;
7377;SDS011;3730;50.856;12.776;2023-12-20T14:19:21;4.63;;;2.17;;
7377;SDS011;3730;50.856;12.776;2023-12-20T14:21:47;3.57;;;1.70;;
7377;SDS011;3730;50.856;12.776;2023-12-20T14:24:13;3.80;;;1.73;;
7377;SDS011;3730;50.856;12.776;2023-12-20T14:26:40;4.53;;;2.20;;
7377;SDS011;3730;50.856;12.776;2023-12-20T14:29:06;4.07;;;2.53;;
7377;SDS011;3730;50.856;12.776;2023-12-20T14:31:32;2.90;;;1.90;;
7377;SDS011;3730;50.856;12.776;2023-12-20T14:33:58;2.40;;;2.03;;
7377;SDS011;3730;50.856;12.776;2023-12-20T14:36:25;4.03;;;2.20;;
7377;SDS011;3730;50.856;12.776;2023-12-20T14:38:52;2.80;;;1.83;;
7377;SDS011;3730;50.856;12.776;2023-12-20T14:41:18;1.70;;;1.50;;
7377;SDS011;3730;50.856;12.776;2023-12-20T14:43:44;4.67;;;1.90;;
7377;SDS011;3730;50.856;12.776;2023-12-20T14:46:10;2.90;;;1.97;;
7377;SDS011;3730;50.856;12.776;2023-12-20T14:48:35;2.60;;;1.60;;
7377;SDS011;3730;50.856;12.776;2023-12-20T14:51:01;3.20;;;1.60;;
7377;SDS011;3730;50.856;12.776;2023-12-20T14:53:27;2.93;;;1.40;;
7377;SDS011;3730;50.856;12.776;2023-12-20T14:55:53;2.33;;;1.50;;
7377;SDS011;3730;50.856;12.776;2023-12-20T14:58:19;3.20;;;1.73;;
7377;SDS011;3730;50.856;12.776;2023-12-20T15:00:45;3.77;;;2.00;;